Time;durP1;ratioP1;P1;durP2;ratioP2;P2;SDS_P1;SDS_P2;PMS_P1;PMS_P2;Temp;Humidity;BMP_temperature;BMP_pressure;BME280_temperature;BME280_humidity;BME280_pressure;Samples;Min_cycle;Max_cycle;Signal;HPM_P1;HPM_P2
2022/01/29 00:00:02;;;;;;;2.22;1.65;;;7.00;99.90;;;;;;5099601;28;20093;-89
2022/01/29 00:02:28;;;;;;;1.00;1.00;;;7.00;99.90;;;;;;5099166;28;20073;-89
2022/01/29 00:04:54;;;;;;;1.45;1.08;;;7.00;99.90;;;;;;5098773;28;20479;-89
2022/01/29 00:07:19;;;;;;;11.02;1.13;;;7.10;99.90;;;;;;5099060;28;20059;-89
2022/01/29 00:09:47;;;;;;;10.93;1.95;;;7.00;99.90;;;;;;5099163;28;20047;-89
2022/01/29 00:12:13;;;;;;;1.02;0.98;;;7.10;99.90;;;;;;5116409;28;20043;-89
2022/01/29 00:14:39;;;;;;;4.53;1.80;;;7.00;99.90;;;;;;5115821;28;20376;-89
2022/01/29 00:17:04;;;;;;;0.47;0.32;;;7.10;99.90;;;;;;5116075;28;20044;-89
2022/01/29 00:19:30;;;;;;;9.80;1.55;;;7.10;99.90;;;;;;5099742;28;20488;-89
2022/01/29 00:21:58;;;;;;;8.35;1.85;;;7.10;99.90;;;;;;5099015;28;20047;-89
2022/01/29 00:24:24;;;;;;;0.38;0.30;;;7.10;99.90;;;;;;5098192;28;20059;-89
2022/01/29 00:26:51;;;;;;;0.85;0.47;;;7.10;99.90;;;;;;5098153;28;20139;-89
2022/01/29 00:29:20;;;;;;;6.07;1.85;;;7.10;99.90;;;;;;5098966;28;20047;-89
2022/01/29 00:31:46;;;;;;;1.75;1.65;;;7.00;99.90;;;;;;5098398;28;20062;-89
2022/01/29 00:34:12;;;;;;;0.85;0.60;;;7.10;99.90;;;;;;5099110;28;20457;-89
2022/01/29 00:36:38;;;;;;;1.75;0.90;;;7.10;99.90;;;;;;5098492;28;20132;-89
2022/01/29 00:39:03;;;;;;;0.73;0.55;;;7.20;99.90;;;;;;5098507;28;20079;-89
2022/01/29 00:41:29;;;;;;;1.42;0.85;;;7.20;99.90;;;;;;5115500;28;20059;-89
2022/01/29 00:43:54;;;;;;;0.82;0.47;;;7.10;99.90;;;;;;5098501;28;20483;-90
2022/01/29 00:46:20;;;;;;;3.47;2.63;;;7.10;99.90;;;;;;5115535;28;20070;-89
2022/01/29 00:48:46;;;;;;;1.85;1.10;;;7.10;99.90;;;;;;5098367;28;20415;-88
2022/01/29 00:51:11;;;;;;;1.05;0.95;;;7.10;99.90;;;;;;5115404;28;20045;-89
2022/01/29 00:53:37;;;;;;;2.03;1.15;;;7.10;99.90;;;;;;5115170;28;20115;-89
2022/01/29 00:56:06;;;;;;;3.40;0.63;;;7.00;99.90;;;;;;5098379;28;20074;-88
2022/01/29 00:58:32;;;;;;;2.50;1.30;;;7.10;99.90;;;;;;5098198;28;20495;-89
2022/01/29 01:00:58;;;;;;;1.88;1.77;;;7.00;99.90;;;;;;5098135;28;20147;-88
2022/01/29 01:03:24;;;;;;;4.97;1.13;;;7.10;99.90;;;;;;5115196;28;20051;-89
2022/01/29 01:05:50;;;;;;;1.05;0.98;;;7.00;99.90;;;;;;5113918;28;20032;-89
2022/01/29 01:08:15;;;;;;;0.52;0.52;;;7.00;99.90;;;;;;5098033;28;20490;-89
2022/01/29 01:10:41;;;;;;;1.08;0.30;;;6.90;99.90;;;;;;5098067;28;20048;-89
2022/01/29 01:13:07;;;;;;;4.90;1.45;;;6.90;99.90;;;;;;5114958;28;20047;-89
2022/01/29 01:15:33;;;;;;;1.10;0.50;;;6.90;99.90;;;;;;5098375;28;20047;-88
2022/01/29 01:17:59;;;;;;;0.55;0.55;;;6.90;99.90;;;;;;5114886;28;20558;-89
2022/01/29 01:20:24;;;;;;;4.85;1.23;;;7.00;99.90;;;;;;5097894;28;20089;-89
2022/01/29 01:22:50;;;;;;;2.75;1.58;;;6.90;99.90;;;;;;5097697;28;20540;-90
2022/01/29 01:25:16;;;;;;;3.33;0.80;;;6.90;99.90;;;;;;5114473;28;20164;-89
2022/01/29 01:27:42;;;;;;;1.15;0.47;;;6.90;99.90;;;;;;5114951;28;20051;-89
2022/01/29 01:30:08;;;;;;;3.10;0.85;;;6.80;99.90;;;;;;5115015;28;20043;-89
2022/01/29 01:32:34;;;;;;;4.35;1.38;;;6.90;99.90;;;;;;5097504;28;20044;-89
2022/01/29 01:35:10;;;;;;;0.98;0.80;;;6.90;99.90;;;;;;5097580;28;20043;-89
2022/01/29 01:40:26;;;;;;;1.25;0.70;;;6.80;99.90;;;;;;5036219;28;20049;-89
2022/01/29 01:42:58;;;;;;;0.88;0.38;;;6.80;99.90;;;;;;5019858;28;20057;-89
2022/01/29 01:45:24;;;;;;;5.38;1.23;;;6.80;99.90;;;;;;5019634;28;20420;-89
2022/01/29 01:47:51;;;;;;;1.52;1.42;;;6.80;99.90;;;;;;5036072;28;20084;-89
2022/01/29 01:50:16;;;;;;;3.72;2.65;;;6.80;99.90;;;;;;5036611;28;20064;-89
2022/01/29 01:52:42;;;;;;;0.63;0.63;;;6.80;99.90;;;;;;5019688;28;20493;-89
2022/01/29 01:55:08;;;;;;;0.93;0.50;;;6.80;99.90;;;;;;5019664;28;20143;-89
2022/01/29 01:57:34;;;;;;;1.80;0.70;;;6.80;99.90;;;;;;5036020;28;20088;-89
2022/01/29 02:00:00;;;;;;;0.73;0.35;;;6.90;99.90;;;;;;5035884;28;20084;-89
2022/01/29 02:02:25;;;;;;;5.22;0.30;;;6.90;99.90;;;;;;5019748;28;20131;-89
2022/01/29 02:04:51;;;;;;;4.25;1.17;;;6.90;99.90;;;;;;5036325;28;20053;-90
2022/01/29 02:07:18;;;;;;;0.20;0.20;;;6.90;99.90;;;;;;5019244;28;20088;-89
2022/01/29 02:09:43;;;;;;;0.38;0.38;;;6.90;99.90;;;;;;5019263;28;20049;-89
2022/01/29 02:12:10;;;;;;;1.33;0.45;;;6.90;99.90;;;;;;5019117;28;20064;-89
2022/01/29 02:14:38;;;;;;;0.38;0.32;;;6.90;99.90;;;;;;5019328;28;20100;-89
2022/01/29 02:17:04;;;;;;;0.80;0.45;;;7.00;99.90;;;;;;5045647;28;20445;-88
2022/01/29 02:19:30;;;;;;;0.68;0.68;;;6.90;99.90;;;;;;5096526;28;20499;-89
2022/01/29 02:21:57;;;;;;;0.75;0.75;;;7.00;99.90;;;;;;5113659;28;20048;-89
2022/01/29 02:24:23;;;;;;;1.95;1.02;;;6.90;99.90;;;;;;5096781;28;20131;-89
2022/01/29 02:26:49;;;;;;;1.55;0.65;;;7.00;99.90;;;;;;5096266;28;20051;-89
2022/01/29 02:29:15;;;;;;;2.05;1.27;;;7.00;99.90;;;;;;5113407;28;20096;-89
2022/01/29 02:31:50;;;;;;;2.15;0.40;;;7.00;99.90;;;;;;5113113;28;20470;-89
2022/01/29 02:34:16;;;;;;;1.55;1.38;;;7.00;99.90;;;;;;5096727;28;20051;-89
2022/01/29 02:36:43;;;;;;;1.23;1.10;;;7.00;99.90;;;;;;5096708;28;20054;-89
2022/01/29 02:39:13;;;;;;;1.38;0.63;;;7.00;99.90;;;;;;5095987;28;20116;-89
2022/01/29 02:41:42;;;;;;;0.20;0.20;;;7.00;99.90;;;;;;5113298;28;20131;-89
2022/01/29 02:44:09;;;;;;;0.47;0.47;;;7.00;99.90;;;;;;5096261;28;20082;-90
2022/01/29 02:49:17;;;;;;;1.35;0.77;;;7.10;99.90;;;;;;5113740;28;20052;-89
2022/01/29 02:51:57;;;;;;;0.40;0.20;;;7.10;99.90;;;;;;5096333;28;20051;-88
2022/01/29 02:54:24;;;;;;;5.78;1.90;;;7.10;99.90;;;;;;5096189;28;20054;-88
2022/01/29 02:56:51;;;;;;;11.77;0.75;;;7.10;99.90;;;;;;5096057;28;20169;-88
2022/01/29 02:59:16;;;;;;;3.85;2.20;;;7.10;99.90;;;;;;5112950;28;20088;-89
2022/01/29 03:01:43;;;;;;;0.32;0.32;;;7.10;99.90;;;;;;5096626;28;20047;-89
2022/01/29 03:04:09;;;;;;;0.20;0.20;;;7.10;99.90;;;;;;5096312;28;20132;-89
2022/01/29 03:06:35;;;;;;;1.27;1.27;;;7.10;99.90;;;;;;5096111;28;20479;-88
2022/01/29 03:09:03;;;;;;;0.77;0.63;;;7.10;99.90;;;;;;5096155;28;20522;-89
2022/01/29 03:11:28;;;;;;;0.43;0.43;;;7.10;99.90;;;;;;5095905;28;20138;-89
2022/01/29 03:13:54;;;;;;;5.10;0.90;;;7.10;99.90;;;;;;5112850;28;20428;-89
2022/01/29 03:16:20;;;;;;;2.33;0.65;;;7.20;99.90;;;;;;5112951;28;20124;-90
2022/01/29 03:18:46;;;;;;;3.75;0.47;;;7.20;99.90;;;;;;5096246;28;20340;-89
2022/01/29 03:21:12;;;;;;;0.10;0.10;;;7.20;99.90;;;;;;5096002;28;20085;-89
2022/01/29 03:23:38;;;;;;;0.60;0.60;;;7.20;99.90;;;;;;5095862;28;20040;-89
2022/01/29 03:26:04;;;;;;;1.08;1.02;;;7.30;99.90;;;;;;5112451;28;20403;-89
2022/01/29 03:28:30;;;;;;;0.98;0.28;;;7.20;99.90;;;;;;5095959;28;20479;-89
2022/01/29 03:30:56;;;;;;;0.88;0.80;;;7.30;99.90;;;;;;5100040;28;20447;-89
2022/01/29 03:33:23;;;;;;;0.32;0.30;;;7.20;99.90;;;;;;5117182;28;20048;-89
2022/01/29 03:35:49;;;;;;;0.32;0.20;;;7.20;99.90;;;;;;5100016;28;20047;-89
2022/01/29 03:38:16;;;;;;;0.88;0.30;;;7.30;99.90;;;;;;5116641;28;20474;-89
2022/01/29 03:40:44;;;;;;;0.47;0.32;;;7.40;99.90;;;;;;5117170;28;20130;-89
2022/01/29 03:43:13;;;;;;;1.67;0.82;;;7.30;99.90;;;;;;5099798;28;20138;-89
2022/01/29 03:45:39;;;;;;;1.98;0.57;;;7.30;99.90;;;;;;5116329;28;20471;-89
2022/01/29 03:48:08;;;;;;;7.10;0.45;;;7.60;99.90;;;;;;5099502;28;20090;-89
2022/01/29 03:50:35;;;;;;;2.13;1.33;;;7.30;99.90;;;;;;5116223;28;20048;-88
2022/01/29 03:53:01;;;;;;;0.82;0.35;;;7.30;99.90;;;;;;5116302;28;20126;-89
2022/01/29 03:55:27;;;;;;;0.10;0.00;;;7.40;99.90;;;;;;5116423;28;20474;-88
2022/01/29 03:57:52;;;;;;;1.95;0.65;;;7.40;99.90;;;;;;5116513;28;20043;-88
2022/01/29 04:00:18;;;;;;;1.85;0.38;;;7.30;99.90;;;;;;5099734;28;20130;-89
2022/01/29 04:02:44;;;;;;;1.38;0.95;;;7.50;99.90;;;;;;5116427;28;20039;-89
2022/01/29 04:05:10;;;;;;;0.20;0.20;;;7.30;99.90;;;;;;5098961;28;20040;-88
2022/01/29 04:07:36;;;;;;;0.55;0.30;;;7.40;99.90;;;;;;5099221;28;20422;-89
2022/01/29 04:10:02;;;;;;;0.60;0.25;;;7.40;99.90;;;;;;5099377;28;20083;-89
2022/01/29 04:12:33;;;;;;;0.10;0.10;;;7.40;99.90;;;;;;5115914;28;20051;-89
2022/01/29 04:14:58;;;;;;;0.35;0.35;;;7.40;99.90;;;;;;5099377;28;20051;-88
2022/01/29 04:17:24;;;;;;;1.73;0.77;;;7.80;99.90;;;;;;5116096;28;20042;-89
2022/01/29 04:19:50;;;;;;;1.40;1.30;;;7.40;99.90;;;;;;5099070;28;20209;-89
2022/01/29 04:22:15;;;;;;;0.65;0.57;;;7.40;99.90;;;;;;5098833;28;20048;-89
2022/01/29 04:24:41;;;;;;;1.63;1.10;;;7.40;99.90;;;;;;5115695;28;20075;-89
2022/01/29 04:27:17;;;;;;;1.00;0.80;;;7.50;99.90;;;;;;5099206;28;20047;-89
2022/01/29 04:29:54;;;;;;;0.57;0.57;;;7.40;99.90;;;;;;5098720;28;20044;-89
2022/01/29 04:32:29;;;;;;;0.63;0.60;;;7.50;99.90;;;;;;5115821;28;20493;-88
2022/01/29 04:34:54;;;;;;;1.45;1.15;;;7.50;99.90;;;;;;5098963;28;20043;-89
2022/01/29 04:37:20;;;;;;;0.80;0.80;;;7.50;99.90;;;;;;5116050;28;20039;-88
2022/01/29 04:39:45;;;;;;;1.35;0.65;;;7.50;99.90;;;;;;5098718;28;20191;-89
2022/01/29 04:42:11;;;;;;;0.25;0.17;;;7.60;99.90;;;;;;5097345;28;20077;-88
2022/01/29 04:44:37;;;;;;;1.88;0.52;;;7.50;99.90;;;;;;5116272;28;20046;-88
2022/01/29 04:47:03;;;;;;;2.05;0.88;;;7.50;99.90;;;;;;5098858;28;20046;-88
2022/01/29 04:49:28;;;;;;;0.60;0.60;;;7.60;99.90;;;;;;5098664;28;20054;-88
2022/01/29 04:51:54;;;;;;;4.28;0.98;;;7.80;99.90;;;;;;5115437;28;20051;-89
2022/01/29 04:54:19;;;;;;;1.05;0.95;;;7.60;99.90;;;;;;5098255;28;20483;-89
2022/01/29 04:56:45;;;;;;;1.17;0.75;;;7.60;99.90;;;;;;5098454;28;20040;-88
2022/01/29 04:59:11;;;;;;;2.28;0.47;;;7.60;99.90;;;;;;5098382;28;20441;-88
2022/01/29 05:01:38;;;;;;;0.70;0.70;;;7.60;99.90;;;;;;5114859;28;20478;-89
2022/01/29 05:04:03;;;;;;;0.30;0.30;;;7.60;99.90;;;;;;5098417;28;20043;-88
2022/01/29 05:06:29;;;;;;;0.73;0.28;;;7.70;99.90;;;;;;5115182;28;20444;-88
2022/01/29 05:08:55;;;;;;;0.95;0.20;;;7.90;99.90;;;;;;5115365;28;20475;-88
2022/01/29 05:11:20;;;;;;;0.10;0.10;;;7.70;99.90;;;;;;5098148;28;20494;-88
2022/01/29 05:13:46;;;;;;;2.72;0.55;;;7.70;99.90;;;;;;5098022;28;20471;-89
2022/01/29 05:27:02;;;;;;;1.02;1.00;;;7.70;99.90;;;;;;5114655;28;20368;-89
2022/01/29 05:29:31;;;;;;;0.73;0.47;;;7.80;99.90;;;;;;5097885;28;20044;-91
2022/01/29 05:32:00;;;;;;;0.52;0.30;;;7.80;99.90;;;;;;5097694;28;20043;-87
2022/01/29 05:34:26;;;;;;;0.25;0.10;;;7.80;99.90;;;;;;5097617;28;20138;-88
2022/01/29 05:36:53;;;;;;;0.65;0.30;;;7.80;99.90;;;;;;5114545;28;20134;-87
2022/01/29 05:39:20;;;;;;;0.93;0.30;;;7.90;99.90;;;;;;5097320;28;20155;-88
2022/01/29 05:41:46;;;;;;;0.45;0.30;;;8.10;99.90;;;;;;5114456;28;20419;-88
2022/01/29 05:44:11;;;;;;;0.10;0.10;;;7.90;99.90;;;;;;5097250;28;20046;-88
2022/01/29 05:46:39;;;;;;;0.20;0.17;;;7.90;99.90;;;;;;5097278;28;20047;-88
2022/01/29 05:49:05;;;;;;;1.70;1.38;;;7.90;99.90;;;;;;5115057;28;20066;-88
2022/01/29 05:51:31;;;;;;;3.53;1.88;;;7.90;99.90;;;;;;5096943;28;20109;-87
2022/01/29 05:54:01;;;;;;;0.25;0.25;;;7.90;99.90;;;;;;5097483;28;20127;-86
2022/01/29 05:56:28;;;;;;;1.08;0.85;;;7.90;99.90;;;;;;5097334;28;20040;-88
2022/01/29 05:58:54;;;;;;;0.17;0.17;;;8.00;99.90;;;;;;5114181;28;20507;-88
2022/01/29 06:01:20;;;;;;;2.95;0.43;;;8.10;99.90;;;;;;5097024;28;20180;-87
2022/01/29 06:03:46;;;;;;;0.70;0.55;;;7.90;99.90;;;;;;5096981;28;20047;-88
2022/01/29 06:06:13;;;;;;;0.52;0.22;;;8.00;99.90;;;;;;5113840;28;20043;-88
2022/01/29 06:08:38;;;;;;;4.65;0.85;;;8.10;99.90;;;;;;5113882;28;20051;-88
2022/01/29 06:11:04;;;;;;;0.32;0.32;;;8.30;99.90;;;;;;5096393;28;20398;-88
2022/01/29 06:13:30;;;;;;;1.20;0.82;;;8.10;99.90;;;;;;5096740;28;20054;-88
2022/01/29 06:15:56;;;;;;;3.20;0.75;;;8.20;99.90;;;;;;5113725;28;20230;-88
2022/01/29 06:18:23;;;;;;;0.60;0.35;;;8.20;99.90;;;;;;5097097;28;20425;-89
2022/01/29 06:20:55;;;;;;;0.30;0.30;;;8.10;99.90;;;;;;5096841;28;20055;-88
2022/01/29 06:23:23;;;;;;;2.25;1.33;;;8.20;99.90;;;;;;5113581;28;20035;-89
2022/01/29 06:25:49;;;;;;;1.10;0.60;;;8.10;99.90;;;;;;5112853;28;20051;-88
2022/01/29 06:28:15;;;;;;;0.82;0.35;;;8.20;99.90;;;;;;5096629;28;20100;-89
2022/01/29 06:30:41;;;;;;;0.00;0.00;;;8.20;99.90;;;;;;5096163;28;20051;-89
2022/01/29 06:33:11;;;;;;;0.40;0.40;;;8.30;99.90;;;;;;5095639;28;20112;-89
2022/01/29 06:35:38;;;;;;;0.20;0.20;;;8.20;99.90;;;;;;5113149;28;20060;-89
2022/01/29 06:38:05;;;;;;;0.17;0.17;;;8.20;99.90;;;;;;5095389;28;20395;-88
2022/01/29 06:40:32;;;;;;;0.55;0.10;;;8.20;99.90;;;;;;5113387;28;20047;-89
2022/01/29 06:42:58;;;;;;;2.10;0.70;;;8.20;99.90;;;;;;5113691;28;20051;-89
2022/01/29 06:45:24;;;;;;;0.03;0.03;;;8.30;99.90;;;;;;5096469;28;20395;-89
2022/01/29 06:47:50;;;;;;;0.08;0.00;;;8.20;99.90;;;;;;5113350;28;20387;-89
2022/01/29 06:50:16;;;;;;;1.33;0.70;;;8.20;99.90;;;;;;5096362;28;20043;-89
2022/01/29 06:52:42;;;;;;;4.57;1.52;;;8.20;99.90;;;;;;5096422;28;20051;-88
2022/01/29 06:55:07;;;;;;;1.48;0.30;;;8.20;99.90;;;;;;5096429;28;20494;-89
2022/01/29 06:57:33;;;;;;;2.03;0.75;;;8.30;99.90;;;;;;5097199;28;20105;-90
2022/01/29 06:59:59;;;;;;;0.10;0.05;;;8.30;99.90;;;;;;5096283;28;20050;-88
2022/01/29 07:02:25;;;;;;;0.17;0.17;;;8.40;99.90;;;;;;5096038;28;20165;-89
2022/01/29 07:04:50;;;;;;;1.40;1.30;;;8.40;99.90;;;;;;5115450;28;20089;-89
2022/01/29 07:07:16;;;;;;;0.55;0.55;;;8.30;99.90;;;;;;5100658;28;20059;-89
2022/01/29 07:09:42;;;;;;;0.43;0.38;;;8.30;99.90;;;;;;5117296;28;20120;-89
2022/01/29 07:12:09;;;;;;;0.95;0.95;;;8.30;99.90;;;;;;5117379;28;20047;-89
2022/01/29 07:14:39;;;;;;;1.95;0.65;;;8.30;99.90;;;;;;5100574;28;20047;-89
2022/01/29 07:17:09;;;;;;;0.10;0.00;;;8.40;99.90;;;;;;5117318;28;20044;-89
2022/01/29 07:19:35;;;;;;;0.00;0.00;;;8.50;99.90;;;;;;5100461;28;20088;-89
2022/01/29 07:22:01;;;;;;;0.10;0.10;;;8.40;99.90;;;;;;5100415;28;20130;-89
2022/01/29 07:24:26;;;;;;;0.00;0.00;;;8.40;99.90;;;;;;5117281;28;20181;-89
2022/01/29 07:26:52;;;;;;;0.85;0.10;;;8.40;99.90;;;;;;5116421;28;20538;-89
2022/01/29 07:29:18;;;;;;;4.60;0.20;;;8.40;99.90;;;;;;5100421;28;20066;-89
2022/01/29 07:31:43;;;;;;;0.10;0.05;;;8.40;99.90;;;;;;5117045;28;20043;-89
2022/01/29 07:34:09;;;;;;;0.25;0.20;;;8.40;99.90;;;;;;5117817;28;20047;-89
2022/01/29 07:36:35;;;;;;;0.45;0.30;;;8.50;99.90;;;;;;5099911;28;20058;-90
2022/01/29 07:39:00;;;;;;;0.10;0.10;;;8.50;99.90;;;;;;5116890;28;20044;-89
2022/01/29 07:41:26;;;;;;;3.83;1.35;;;8.50;99.90;;;;;;5100009;28;20047;-89
2022/01/29 07:43:52;;;;;;;0.25;0.10;;;8.50;99.90;;;;;;5117718;28;20160;-89
2022/01/29 07:46:17;;;;;;;0.20;0.10;;;8.40;99.90;;;;;;5116288;28;20108;-89
2022/01/29 07:48:43;;;;;;;10.38;1.85;;;8.50;99.90;;;;;;5099584;28;20059;-89
2022/01/29 07:51:09;;;;;;;0.70;0.70;;;8.40;99.90;;;;;;5099570;28;20056;-89
2022/01/29 07:53:34;;;;;;;0.08;0.00;;;8.60;99.90;;;;;;5099543;28;20050;-90
2022/01/29 07:56:00;;;;;;;0.10;0.10;;;8.60;99.90;;;;;;5117176;28;20437;-89
2022/01/29 07:58:26;;;;;;;0.10;0.10;;;8.50;99.90;;;;;;5099052;28;20122;-89
2022/01/29 08:00:53;;;;;;;0.22;0.10;;;8.60;99.90;;;;;;5098978;28;20055;-90
2022/01/29 08:03:19;;;;;;;0.15;0.05;;;8.50;99.90;;;;;;5116952;28;20499;-88
2022/01/29 08:05:44;;;;;;;0.40;0.40;;;8.50;99.90;;;;;;5098967;28;20043;-88
2022/01/29 08:08:10;;;;;;;4.40;0.38;;;8.50;99.90;;;;;;5099013;28;20043;-88
2022/01/29 08:10:36;;;;;;;3.33;0.93;;;8.50;99.90;;;;;;5099272;28;20471;-88
2022/01/29 08:13:02;;;;;;;0.15;0.10;;;8.50;99.90;;;;;;5116872;28;20039;-89
2022/01/29 08:15:28;;;;;;;1.30;0.10;;;8.50;99.90;;;;;;5099285;28;20104;-88
2022/01/29 08:17:53;;;;;;;1.15;0.20;;;8.70;99.90;;;;;;5098955;28;20050;-88
2022/01/29 08:20:19;;;;;;;0.90;0.47;;;8.50;99.90;;;;;;5099263;28;20494;-88
2022/01/29 08:22:46;;;;;;;0.10;0.00;;;8.50;99.90;;;;;;5116243;28;20052;-88
2022/01/29 08:25:12;;;;;;;2.50;0.10;;;8.60;99.90;;;;;;5098348;28;20051;-88
2022/01/29 08:27:37;;;;;;;0.08;0.08;;;8.60;99.90;;;;;;5098644;28;20126;-88
2022/01/29 08:30:04;;;;;;;0.30;0.30;;;8.60;99.90;;;;;;5115811;28;20097;-89
2022/01/29 08:32:30;;;;;;;0.28;0.20;;;8.60;99.90;;;;;;5116468;28;20051;-89
2022/01/29 08:34:55;;;;;;;0.00;0.00;;;8.70;99.90;;;;;;5115386;28;20391;-89
2022/01/29 08:37:21;;;;;;;0.55;0.10;;;8.70;99.90;;;;;;5115880;28;20039;-89
2022/01/29 08:39:47;;;;;;;1.67;0.65;;;8.60;99.90;;;;;;5098820;28;20154;-88
2022/01/29 08:42:12;;;;;;;2.97;0.40;;;8.70;99.90;;;;;;5098452;28;20055;-89
2022/01/29 08:44:38;;;;;;;0.10;0.10;;;8.60;99.90;;;;;;5098719;28;20103;-89
2022/01/29 08:47:04;;;;;;;0.20;0.20;;;8.70;99.90;;;;;;5115449;28;20062;-89
2022/01/29 08:49:30;;;;;;;0.00;0.00;;;8.70;99.90;;;;;;5115449;28;20048;-89
2022/01/29 08:51:56;;;;;;;0.20;0.20;;;8.80;99.90;;;;;;5098647;28;20039;-88
2022/01/29 08:54:21;;;;;;;1.77;1.02;;;8.80;99.90;;;;;;5116132;28;20547;-89
2022/01/29 08:56:47;;;;;;;0.47;0.47;;;8.80;99.90;;;;;;5098308;28;20050;-88
2022/01/29 08:59:13;;;;;;;0.17;0.13;;;8.90;99.90;;;;;;5116085;28;20139;-90
2022/01/29 09:01:38;;;;;;;1.10;0.40;;;8.80;99.90;;;;;;5115316;28;20083;-89
2022/01/29 09:04:04;;;;;;;0.05;0.05;;;8.80;99.90;;;;;;5098145;28;20391;-89
2022/01/29 09:06:30;;;;;;;0.30;0.30;;;8.90;99.90;;;;;;5098769;28;20047;-89
2022/01/29 09:08:55;;;;;;;0.00;0.00;;;8.90;99.90;;;;;;5097911;28;20043;-88
2022/01/29 09:11:21;;;;;;;0.20;0.20;;;8.90;99.90;;;;;;5115073;28;20043;-88
2022/01/29 09:13:47;;;;;;;0.10;0.10;;;9.00;99.90;;;;;;5114982;28;20096;-88
2022/01/29 09:16:13;;;;;;;0.00;0.00;;;9.00;99.90;;;;;;5097893;28;20075;-88
2022/01/29 09:18:39;;;;;;;0.00;0.00;;;9.00;99.90;;;;;;5114591;28;20138;-88
2022/01/29 09:21:05;;;;;;;0.57;0.45;;;9.00;99.90;;;;;;5097522;28;20071;-88
2022/01/29 09:23:31;;;;;;;0.10;0.10;;;9.00;99.90;;;;;;5097650;28;20043;-89
2022/01/29 09:25:56;;;;;;;0.10;0.10;;;9.00;99.90;;;;;;5097828;28;20134;-89
2022/01/29 09:28:23;;;;;;;0.10;0.10;;;9.10;99.90;;;;;;5097317;28;20063;-91
2022/01/29 09:30:52;;;;;;;0.47;0.17;;;9.00;99.90;;;;;;5115048;28;20055;-91
2022/01/29 09:33:17;;;;;;;0.03;0.00;;;9.00;99.90;;;;;;5114995;28;20069;-89
2022/01/29 09:35:44;;;;;;;0.00;0.00;;;9.10;99.90;;;;;;5097712;28;20047;-89
2022/01/29 09:38:11;;;;;;;0.00;0.00;;;9.20;99.90;;;;;;5097901;28;20079;-90
2022/01/29 09:40:37;;;;;;;0.47;0.47;;;9.20;99.90;;;;;;5115022;28;20044;-89
2022/01/29 09:43:06;;;;;;;0.00;0.00;;;9.10;99.90;;;;;;5097084;28;20044;-90
2022/01/29 09:45:33;;;;;;;1.88;0.32;;;9.10;99.90;;;;;;5114106;28;20103;-92
2022/01/29 09:48:02;;;;;;;0.00;0.00;;;9.10;99.90;;;;;;5097813;28;20395;-90
2022/01/29 09:50:36;;;;;;;7.03;0.10;;;9.10;99.90;;;;;;5114489;28;20050;-89
2022/01/29 09:53:05;;;;;;;0.00;0.00;;;9.10;99.90;;;;;;5097568;28;20054;-89
2022/01/29 09:55:31;;;;;;;0.00;0.00;;;9.20;99.90;;;;;;5113733;28;20048;-90
2022/01/29 09:57:58;;;;;;;0.05;0.05;;;9.20;99.90;;;;;;5114169;28;20090;-91
2022/01/29 10:00:24;;;;;;;0.00;0.00;;;9.20;99.90;;;;;;5097230;28;20372;-89
2022/01/29 10:03:11;;;;;;;4.63;0.75;;;9.30;99.90;;;;;;5096912;28;20479;-88
2022/01/29 10:05:40;;;;;;;0.00;0.00;;;9.30;99.90;;;;;;5097500;28;20364;-88
2022/01/29 10:08:07;;;;;;;0.38;0.38;;;9.40;99.90;;;;;;5114560;28;20412;-88
2022/01/29 10:10:44;;;;;;;0.03;0.00;;;9.40;99.90;;;;;;5096737;28;20048;-88
2022/01/29 10:13:37;;;;;;;0.00;0.00;;;9.40;99.90;;;;;;5114359;28;20083;-88
2022/01/29 10:16:25;;;;;;;0.50;0.50;;;9.40;99.90;;;;;;5113727;28;20395;-88
2022/01/29 10:19:08;;;;;;;0.10;0.00;;;9.50;99.90;;;;;;5096622;28;20479;-88
2022/01/29 10:21:41;;;;;;;0.45;0.10;;;9.50;99.90;;;;;;5096640;28;20425;-88
2022/01/29 10:24:13;;;;;;;0.00;0.00;;;9.50;99.90;;;;;;5113201;28;20118;-88
2022/01/29 10:26:41;;;;;;;10.13;0.75;;;9.40;99.90;;;;;;5112912;28;20095;-88
2022/01/29 10:29:09;;;;;;;0.00;0.00;;;9.50;99.90;;;;;;5113480;28;20050;-88
2022/01/29 10:31:43;;;;;;;0.22;0.22;;;9.60;99.90;;;;;;5096525;28;20059;-89
2022/01/29 10:34:20;;;;;;;0.20;0.20;;;9.60;99.90;;;;;;5096206;28;20059;-89
2022/01/29 10:37:18;;;;;;;4.78;1.15;;;9.60;99.90;;;;;;5096251;28;20134;-88
2022/01/29 10:39:58;;;;;;;1.75;1.20;;;9.60;99.90;;;;;;5112523;28;20044;-88
2022/01/29 10:42:27;;;;;;;0.00;0.00;;;9.60;99.90;;;;;;5113620;28;20045;-88
2022/01/29 10:44:56;;;;;;;0.00;0.00;;;9.70;99.90;;;;;;5096205;28;20043;-87
2022/01/29 10:47:22;;;;;;;0.00;0.00;;;9.70;99.90;;;;;;5096542;28;20360;-88
2022/01/29 10:50:01;;;;;;;0.28;0.28;;;9.70;99.90;;;;;;5096721;28;20395;-87
2022/01/29 10:52:32;;;;;;;0.00;0.00;;;9.70;99.90;;;;;;5096702;28;20051;-88
2022/01/29 10:55:08;;;;;;;0.40;0.15;;;9.80;99.90;;;;;;5112853;28;20113;-88
2022/01/29 10:57:44;;;;;;;0.20;0.10;;;9.80;99.90;;;;;;5096206;28;20044;-88
2022/01/29 11:00:18;;;;;;;5.82;1.08;;;9.80;99.90;;;;;;5113545;28;20049;-88
2022/01/29 11:02:44;;;;;;;0.00;0.00;;;9.80;99.90;;;;;;5096026;28;20510;-88
2022/01/29 11:05:11;;;;;;;3.60;0.32;;;9.90;99.90;;;;;;5095998;28;20505;-88
2022/01/29 11:07:37;;;;;;;0.00;0.00;;;9.90;99.90;;;;;;5113001;28;20039;-88
2022/01/29 11:10:08;;;;;;;1.45;0.63;;;10.00;99.90;;;;;;5096340;28;20052;-88
2022/01/29 11:12:36;;;;;;;3.17;0.35;;;10.00;99.90;;;;;;5096732;28;20055;-88
2022/01/29 11:15:03;;;;;;;0.25;0.25;;;10.00;99.90;;;;;;5096237;28;20096;-88
2022/01/29 11:17:31;;;;;;;0.40;0.25;;;10.00;99.90;;;;;;5096101;28;20055;-88
2022/01/29 11:19:57;;;;;;;1.95;0.20;;;10.00;99.90;;;;;;5095988;28;20046;-88
2022/01/29 11:22:34;;;;;;;0.40;0.00;;;10.20;99.90;;;;;;5095895;28;20048;-88
2022/01/29 11:25:04;;;;;;;0.00;0.00;;;10.10;99.90;;;;;;5095479;28;20130;-88
2022/01/29 11:27:37;;;;;;;0.10;0.10;;;10.10;99.90;;;;;;5112764;28;20445;-88
2022/01/29 11:30:06;;;;;;;1.98;0.75;;;10.30;99.90;;;;;;5095882;28;20180;-89
2022/01/29 11:32:39;;;;;;;0.25;0.25;;;10.20;99.90;;;;;;5095569;28;20505;-88
2022/01/29 11:35:21;;;;;;;0.88;0.38;;;10.20;99.90;;;;;;5096608;28;20036;-89
2022/01/29 11:37:54;;;;;;;3.85;0.75;;;10.30;99.90;;;;;;5112240;28;20510;-89
2022/01/29 11:40:36;;;;;;;0.10;0.00;;;10.20;99.90;;;;;;5112791;28;20044;-88
2022/01/29 11:43:09;;;;;;;0.10;0.00;;;10.20;99.90;;;;;;5112792;28;20047;-89
2022/01/29 11:45:54;;;;;;;0.10;0.10;;;10.20;99.90;;;;;;5095446;28;20047;-88
2022/01/29 11:48:27;;;;;;;1.90;0.90;;;10.20;99.90;;;;;;5113195;28;20040;-90
2022/01/29 11:50:58;;;;;;;0.20;0.20;;;10.30;99.90;;;;;;5097903;28;20043;-89
2022/01/29 11:53:25;;;;;;;0.15;0.05;;;10.30;99.90;;;;;;5116560;28;20385;-89
2022/01/29 11:55:53;;;;;;;10.95;0.73;;;10.30;99.90;;;;;;5099587;28;20079;-88
2022/01/29 11:58:28;;;;;;;0.00;0.00;;;10.30;99.90;;;;;;5099382;28;20046;-89
2022/01/29 12:01:02;;;;;;;0.00;0.00;;;10.30;99.90;;;;;;5099389;28;20082;-89
2022/01/29 12:03:37;;;;;;;0.00;0.00;;;10.40;99.90;;;;;;5099365;28;20537;-89
2022/01/29 12:11:34;;;;;;;0.10;0.10;;;10.50;99.90;;;;;;5116153;28;20043;-90
2022/01/29 12:14:29;;;;;;;0.10;0.00;;;10.60;99.90;;;;;;5099711;28;20051;-89
2022/01/29 12:16:58;;;;;;;0.10;0.10;;;10.80;99.90;;;;;;5001613;28;20212;-89
2022/01/29 12:19:43;;;;;;;0.00;0.00;;;10.70;99.90;;;;;;5001471;28;20049;-89
2022/01/29 12:22:11;;;;;;;0.00;0.00;;;10.70;99.90;;;;;;5018533;28;20075;-89
2022/01/29 12:24:39;;;;;;;2.25;0.32;;;10.70;99.90;;;;;;5017871;28;20096;-89
2022/01/29 12:27:05;;;;;;;0.00;0.00;;;10.70;99.90;;;;;;5000729;28;20053;-89
2022/01/29 12:29:31;;;;;;;0.00;0.00;;;10.70;99.90;;;;;;5001421;28;20103;-89
2022/01/29 12:31:58;;;;;;;0.00;0.00;;;10.70;99.90;;;;;;5001570;28;20049;-90
2022/01/29 12:34:28;;;;;;;0.00;0.00;;;10.70;99.90;;;;;;5001372;28;20097;-90
2022/01/29 12:37:13;;;;;;;7.70;1.13;;;10.70;99.90;;;;;;5001979;28;20085;-89
2022/01/29 12:39:43;;;;;;;0.00;0.00;;;10.70;99.90;;;;;;5017613;28;20093;-89
2022/01/29 12:44:42;;;;;;;0.47;0.10;;;10.70;99.90;;;;;;5017182;28;20080;-88
2022/01/29 12:47:22;;;;;;;0.03;0.00;;;10.70;99.90;;;;;;5001048;28;20378;-89
2022/01/29 12:49:47;;;;;;;0.00;0.00;;;10.80;99.90;;;;;;5001373;28;20045;-89
2022/01/29 12:52:17;;;;;;;0.80;0.80;;;10.70;99.90;;;;;;5021963;28;20136;-89
2022/01/29 12:55:00;;;;;;;14.88;1.42;;;10.80;99.90;;;;;;5115205;28;20087;-89
2022/01/29 12:57:40;;;;;;;0.25;0.22;;;10.80;99.90;;;;;;5098726;28;20097;-89
2022/01/29 13:00:12;;;;;;;0.00;0.00;;;10.70;99.90;;;;;;5115762;28;20126;-92
2022/01/29 13:02:38;;;;;;;1.25;0.80;;;10.70;99.90;;;;;;5097817;28;20052;-89
2022/01/29 13:05:04;;;;;;;0.80;0.80;;;10.80;99.90;;;;;;5097299;28;20047;-91
2022/01/29 13:07:34;;;;;;;0.08;0.00;;;10.80;99.90;;;;;;5098376;28;20050;-92
2022/01/29 13:09:59;;;;;;;0.00;0.00;;;10.90;99.90;;;;;;5115894;28;20126;-91
2022/01/29 13:12:25;;;;;;;0.00;0.00;;;10.80;99.90;;;;;;5098055;28;20082;-88
2022/01/29 13:14:52;;;;;;;0.10;0.10;;;10.80;99.90;;;;;;5098370;28;20475;-91
2022/01/29 13:17:19;;;;;;;0.00;0.00;;;10.80;99.90;;;;;;5098270;28;20096;-92
2022/01/29 13:19:47;;;;;;;0.00;0.00;;;10.80;99.90;;;;;;5115505;28;20052;-92
2022/01/29 13:22:14;;;;;;;0.00;0.00;;;10.80;99.90;;;;;;5098977;28;20043;-92